Sitka, AK

8:19 AM AKDT on September 21, 2014 (GMT -0800)
Kake | Change Station
CLOSE
Current Station
Airport
Location: Kake,
Elevation: 171 ft
Nearby Weather Stations

Elev 171 ft 56.96 °N, 133.91 °W | Updated 3 minutes ago

Overcast
Overcast
61 °F
Feels Like 61 °F
N
10
Wind Variable Wind from ESE
Gusts 18 mph

Today
High -- | Low -- °F
--% Chance of Precip.
Yesterday
High -- | Low -- °F
Precip. -- in
6:44 AM 7:02 PM
Waning Crescent, 6% visible
Pressure 29.49 in
Visibility 10.0 miles
Clouds Mostly Cloudy 3500 ft
Overcast 4400 ft
Dew Point 57 °F
Humidity 88%
Rainfall 2.54 in
Snow Depth 5 in , 1 in , 1 in
UV 0 out of 12
Pollen Not available.
Air Quality Not available.
Flu Activity Not available.
METAR PAFE 211616Z AUTO 11009G16KT 10SM BKN035 OVC044 16/14 A2949 RMK AO1 P0002

More Conditions Fewer Conditions

Pressure 29.49 in
Visibility 10.0 miles
Clouds Mostly Cloudy 3500 ft
Overcast 4400 ft
Dew Point 57 °F
Humidity 88%
Rainfall 2.54 in
Snow Depth 5 in , 1 in , 1 in
UV 0 out of 12
Pollen Not available.
Air Quality Not available.
Flu Activity Not available.
METAR PAFE 211616Z AUTO 11009G16KT 10SM BKN035 OVC044 16/14 A2949 RMK AO1 P0002

More Conditions Fewer Conditions

10-Day Weather Forecast

Almanac

Astronomy

Sep. 21, 2014 Rise Set
Actual Time 6:44 AM AKDT 7:02 PM AKDT
Civil Twilight 6:06 AM AKDT 7:40 PM AKDT
Nautical Twilight 5:20 AM AKDT 8:26 PM AKDT
Astronomical Twilight 4:31 AM AKDT 9:15 PM AKDT
Moon 4:04 AM AKDT 5:58 PM AKDT
Length of Visible Light 13h 34m
Length of Day
12h 18m
Tomorrow will be 4m 48s shorter.
Waning Crescent, 6% of the Moon is Illuminated
Today
Waning Crescent
Sep 24
New
Oct 1
First Quarter
Oct 8
Full
Oct 15
Last Quarter

Today's Extremes

State Highs State Lows

Community

WunderPhotos

Upload Photos

1,755,181 photos uploaded!

Nearby

Snow Depth

Station Depth Elevation
Atigun Pass 5 in 4800 ft
Indian Pass 1 in 2300 ft
Eagle Summit 1 in 3650 ft
Little Chena Ridge 0 in 2000 ft
Granite Creek 0 in 1240 ft

Earthquake Activity

City Distance Mag. Time & Date
No recent earthquake activity has been reported nearby.
Minimum magnitude displayed is 2.5.

Coastal Water Temperatures

Place Temperature
No Stations Reporting

Nearby Weather Stations